sensor_id;sensor_type;location;lat;lon;timestamp;temperature;humidity
46217;DHT22;47258;59.424;13.482;2023-01-08T00:02:03;3.30;99.90
46217;DHT22;47258;59.424;13.482;2023-01-08T00:04:30;3.30;99.90
46217;DHT22;47258;59.424;13.482;2023-01-08T00:06:57;3.30;99.90
46217;DHT22;47258;59.424;13.482;2023-01-08T00:09:24;3.40;99.90
46217;DHT22;47258;59.424;13.482;2023-01-08T00:11:51;3.30;99.90
46217;DHT22;47258;59.424;13.482;2023-01-08T00:14:19;3.40;99.90
46217;DHT22;47258;59.424;13.482;2023-01-08T00:16:46;3.40;99.90
46217;DHT22;47258;59.424;13.482;2023-01-08T00:19:13;3.40;99.90
46217;DHT22;47258;59.424;13.482;2023-01-08T00:21:40;3.40;99.90
46217;DHT22;47258;59.424;13.482;2023-01-08T00:24:07;3.40;99.90
46217;DHT22;47258;59.424;13.482;2023-01-08T00:26:35;3.50;99.90
46217;DHT22;47258;59.424;13.482;2023-01-08T00:29:02;3.50;99.90
46217;DHT22;47258;59.424;13.482;2023-01-08T00:31:30;3.40;99.90
46217;DHT22;47258;59.424;13.482;2023-01-08T00:33:57;3.50;99.90
46217;DHT22;47258;59.424;13.482;2023-01-08T00:36:25;3.50;99.90
46217;DHT22;47258;59.424;13.482;2023-01-08T00:38:52;3.50;99.90
46217;DHT22;47258;59.424;13.482;2023-01-08T00:41:19;3.50;99.90
46217;DHT22;47258;59.424;13.482;2023-01-08T00:43:46;3.50;99.90
46217;DHT22;47258;59.424;13.482;2023-01-08T00:46:13;3.50;99.90
46217;DHT22;47258;59.424;13.482;2023-01-08T00:48:41;3.60;99.90
46217;DHT22;47258;59.424;13.482;2023-01-08T00:51:08;3.60;99.90
46217;DHT22;47258;59.424;13.482;2023-01-08T00:53:36;3.60;99.90
46217;DHT22;47258;59.424;13.482;2023-01-08T00:56:05;3.60;99.90
46217;DHT22;47258;59.424;13.482;2023-01-08T00:58:32;3.70;99.90
46217;DHT22;47258;59.424;13.482;2023-01-08T01:01:00;3.70;99.90
46217;DHT22;47258;59.424;13.482;2023-01-08T01:03:27;3.70;99.90
46217;DHT22;47258;59.424;13.482;2023-01-08T01:06:00;3.70;99.90
46217;DHT22;47258;59.424;13.482;2023-01-08T01:08:28;3.70;99.90
46217;DHT22;47258;59.424;13.482;2023-01-08T01:10:55;3.70;99.90
46217;DHT22;47258;59.424;13.482;2023-01-08T01:13:22;3.70;99.90
46217;DHT22;47258;59.424;13.482;2023-01-08T01:15:56;3.70;99.90
46217;DHT22;47258;59.424;13.482;2023-01-08T01:18:23;3.70;99.90
46217;DHT22;47258;59.424;13.482;2023-01-08T01:20:51;3.70;99.90
46217;DHT22;47258;59.424;13.482;2023-01-08T01:23:19;3.70;99.90
46217;DHT22;47258;59.424;13.482;2023-01-08T01:25:46;3.70;99.90
46217;DHT22;47258;59.424;13.482;2023-01-08T01:28:13;3.70;99.90
46217;DHT22;47258;59.424;13.482;2023-01-08T01:30:40;3.70;99.90
46217;DHT22;47258;59.424;13.482;2023-01-08T01:33:08;3.80;99.90
46217;DHT22;47258;59.424;13.482;2023-01-08T01:35:35;3.80;99.90
46217;DHT22;47258;59.424;13.482;2023-01-08T01:38:02;3.80;99.90
46217;DHT22;47258;59.424;13.482;2023-01-08T01:40:30;3.80;99.90
46217;DHT22;47258;59.424;13.482;2023-01-08T01:42:57;3.80;99.90
46217;DHT22;47258;59.424;13.482;2023-01-08T01:45:26;3.70;99.90
46217;DHT22;47258;59.424;13.482;2023-01-08T01:47:56;3.80;99.90
46217;DHT22;47258;59.424;13.482;2023-01-08T01:50:27;3.80;99.90
46217;DHT22;47258;59.424;13.482;2023-01-08T01:53:00;3.80;99.90
46217;DHT22;47258;59.424;13.482;2023-01-08T01:55:29;3.80;99.90
46217;DHT22;47258;59.424;13.482;2023-01-08T01:58:02;3.80;99.90
46217;DHT22;47258;59.424;13.482;2023-01-08T02:00:32;3.90;99.90
46217;DHT22;47258;59.424;13.482;2023-01-08T02:03:00;3.90;99.90
46217;DHT22;47258;59.424;13.482;2023-01-08T02:05:33;3.90;99.90
46217;DHT22;47258;59.424;13.482;2023-01-08T02:08:06;3.90;99.90
46217;DHT22;47258;59.424;13.482;2023-01-08T02:10:41;3.90;99.90
46217;DHT22;47258;59.424;13.482;2023-01-08T02:13:13;3.90;99.90
46217;DHT22;47258;59.424;13.482;2023-01-08T02:15:49;3.90;99.90
46217;DHT22;47258;59.424;13.482;2023-01-08T02:18:19;3.80;99.90
46217;DHT22;47258;59.424;13.482;2023-01-08T02:20:50;3.90;99.90
46217;DHT22;47258;59.424;13.482;2023-01-08T02:23:25;3.90;99.90
46217;DHT22;47258;59.424;13.482;2023-01-08T02:26:03;3.80;99.90
46217;DHT22;47258;59.424;13.482;2023-01-08T02:28:35;3.90;99.90
46217;DHT22;47258;59.424;13.482;2023-01-08T02:31:05;3.90;99.90
46217;DHT22;47258;59.424;13.482;2023-01-08T02:33:32;3.90;99.90
46217;DHT22;47258;59.424;13.482;2023-01-08T02:36:19;3.90;99.90
46217;DHT22;47258;59.424;13.482;2023-01-08T02:38:56;3.90;99.90
46217;DHT22;47258;59.424;13.482;2023-01-08T02:41:32;3.90;99.90
46217;DHT22;47258;59.424;13.482;2023-01-08T02:44:04;3.90;99.90
46217;DHT22;47258;59.424;13.482;2023-01-08T02:46:33;4.00;99.90
46217;DHT22;47258;59.424;13.482;2023-01-08T02:49:04;4.00;99.90
46217;DHT22;47258;59.424;13.482;2023-01-08T02:51:34;4.00;99.90
46217;DHT22;47258;59.424;13.482;2023-01-08T02:54:08;4.00;99.90
46217;DHT22;47258;59.424;13.482;2023-01-08T02:56:41;4.00;99.90
46217;DHT22;47258;59.424;13.482;2023-01-08T02:59:11;4.00;99.90
46217;DHT22;47258;59.424;13.482;2023-01-08T03:01:39;4.00;99.90
46217;DHT22;47258;59.424;13.482;2023-01-08T03:04:11;4.00;99.90
46217;DHT22;47258;59.424;13.482;2023-01-08T03:06:39;4.00;99.90
46217;DHT22;47258;59.424;13.482;2023-01-08T03:09:06;4.00;99.90
46217;DHT22;47258;59.424;13.482;2023-01-08T03:11:39;4.00;99.90
46217;DHT22;47258;59.424;13.482;2023-01-08T03:14:09;4.00;99.90
46217;DHT22;47258;59.424;13.482;2023-01-08T03:16:39;4.00;99.90
46217;DHT22;47258;59.424;13.482;2023-01-08T03:19:10;4.00;99.90
46217;DHT22;47258;59.424;13.482;2023-01-08T03:21:40;4.00;99.90
46217;DHT22;47258;59.424;13.482;2023-01-08T03:24:10;4.00;99.90
46217;DHT22;47258;59.424;13.482;2023-01-08T03:26:39;4.10;99.90
46217;DHT22;47258;59.424;13.482;2023-01-08T03:29:08;4.00;99.90
46217;DHT22;47258;59.424;13.482;2023-01-08T03:31:38;4.00;99.90
46217;DHT22;47258;59.424;13.482;2023-01-08T03:34:06;4.00;99.90
46217;DHT22;47258;59.424;13.482;2023-01-08T03:36:35;4.00;99.90
46217;DHT22;47258;59.424;13.482;2023-01-08T03:39:08;4.00;99.90
46217;DHT22;47258;59.424;13.482;2023-01-08T03:41:39;4.10;99.90
46217;DHT22;47258;59.424;13.482;2023-01-08T03:44:07;4.10;99.90
46217;DHT22;47258;59.424;13.482;2023-01-08T03:46:37;4.10;99.90
46217;DHT22;47258;59.424;13.482;2023-01-08T03:49:06;4.10;99.90
46217;DHT22;47258;59.424;13.482;2023-01-08T03:51:41;4.10;99.90
46217;DHT22;47258;59.424;13.482;2023-01-08T03:54:12;4.10;99.90
46217;DHT22;47258;59.424;13.482;2023-01-08T03:56:41;4.10;99.90
46217;DHT22;47258;59.424;13.482;2023-01-08T03:59:09;4.10;99.90
46217;DHT22;47258;59.424;13.482;2023-01-08T04:01:36;4.10;99.90
46217;DHT22;47258;59.424;13.482;2023-01-08T04:04:04;4.10;99.90
46217;DHT22;47258;59.424;13.482;2023-01-08T04:06:31;4.10;99.90
46217;DHT22;47258;59.424;13.482;2023-01-08T04:08:58;4.10;99.90
46217;DHT22;47258;59.424;13.482;2023-01-08T04:11:25;4.10;99.90
46217;DHT22;47258;59.424;13.482;2023-01-08T04:13:53;4.10;99.90
46217;DHT22;47258;59.424;13.482;2023-01-08T04:16:20;4.10;99.90
46217;DHT22;47258;59.424;13.482;2023-01-08T04:18:48;4.10;99.90
46217;DHT22;47258;59.424;13.482;2023-01-08T04:21:15;4.00;99.90
46217;DHT22;47258;59.424;13.482;2023-01-08T04:23:42;4.00;99.90
46217;DHT22;47258;59.424;13.482;2023-01-08T04:26:09;4.00;99.90
46217;DHT22;47258;59.424;13.482;2023-01-08T04:28:36;4.10;99.90
46217;DHT22;47258;59.424;13.482;2023-01-08T04:31:06;4.00;99.90
46217;DHT22;47258;59.424;13.482;2023-01-08T04:33:33;4.10;99.90
46217;DHT22;47258;59.424;13.482;2023-01-08T04:36:00;4.00;99.90
46217;DHT22;47258;59.424;13.482;2023-01-08T04:38:27;4.10;99.90
46217;DHT22;47258;59.424;13.482;2023-01-08T04:40:55;4.00;99.90
46217;DHT22;47258;59.424;13.482;2023-01-08T04:43:23;4.10;99.90
46217;DHT22;47258;59.424;13.482;2023-01-08T04:45:50;4.10;99.90
46217;DHT22;47258;59.424;13.482;2023-01-08T04:48:18;4.10;99.90
46217;DHT22;47258;59.424;13.482;2023-01-08T04:50:45;4.10;99.90
46217;DHT22;47258;59.424;13.482;2023-01-08T04:53:12;4.00;99.90
46217;DHT22;47258;59.424;13.482;2023-01-08T04:55:39;4.10;99.90
46217;DHT22;47258;59.424;13.482;2023-01-08T04:58:07;4.10;99.90
46217;DHT22;47258;59.424;13.482;2023-01-08T05:00:34;4.10;99.90
46217;DHT22;47258;59.424;13.482;2023-01-08T05:03:01;4.00;99.90
46217;DHT22;47258;59.424;13.482;2023-01-08T05:05:30;4.10;99.90
46217;DHT22;47258;59.424;13.482;2023-01-08T05:07:57;4.10;99.90
46217;DHT22;47258;59.424;13.482;2023-01-08T05:10:24;4.10;99.90
46217;DHT22;47258;59.424;13.482;2023-01-08T05:12:51;4.10;99.90
46217;DHT22;47258;59.424;13.482;2023-01-08T05:15:18;4.10;99.90
46217;DHT22;47258;59.424;13.482;2023-01-08T05:17:45;4.10;99.90
46217;DHT22;47258;59.424;13.482;2023-01-08T05:20:12;4.10;99.90
46217;DHT22;47258;59.424;13.482;2023-01-08T05:22:41;4.10;99.90
46217;DHT22;47258;59.424;13.482;2023-01-08T05:25:08;4.10;99.90
46217;DHT22;47258;59.424;13.482;2023-01-08T05:27:35;4.10;99.90
46217;DHT22;47258;59.424;13.482;2023-01-08T05:30:03;4.10;99.90
46217;DHT22;47258;59.424;13.482;2023-01-08T05:32:30;4.10;99.90
46217;DHT22;47258;59.424;13.482;2023-01-08T05:34:57;4.10;99.90
46217;DHT22;47258;59.424;13.482;2023-01-08T05:37:24;4.10;99.90
46217;DHT22;47258;59.424;13.482;2023-01-08T05:39:53;4.10;99.90
46217;DHT22;47258;59.424;13.482;2023-01-08T05:42:20;4.10;99.90
46217;DHT22;47258;59.424;13.482;2023-01-08T05:44:47;4.10;99.90
46217;DHT22;47258;59.424;13.482;2023-01-08T05:47:14;4.10;99.90
46217;DHT22;47258;59.424;13.482;2023-01-08T05:49:41;4.10;99.90
46217;DHT22;47258;59.424;13.482;2023-01-08T05:52:08;4.10;99.90
46217;DHT22;47258;59.424;13.482;2023-01-08T05:54:35;4.10;99.90
46217;DHT22;47258;59.424;13.482;2023-01-08T05:57:04;4.10;99.90
46217;DHT22;47258;59.424;13.482;2023-01-08T05:59:31;4.10;99.90
46217;DHT22;47258;59.424;13.482;2023-01-08T06:01:58;4.10;99.90
46217;DHT22;47258;59.424;13.482;2023-01-08T06:04:25;4.10;99.90
46217;DHT22;47258;59.424;13.482;2023-01-08T06:06:52;4.10;99.90
46217;DHT22;47258;59.424;13.482;2023-01-08T06:09:19;4.10;99.90
46217;DHT22;47258;59.424;13.482;2023-01-08T06:11:46;4.10;99.90
46217;DHT22;47258;59.424;13.482;2023-01-08T06:14:15;4.00;99.90
46217;DHT22;47258;59.424;13.482;2023-01-08T06:16:42;4.00;99.90
46217;DHT22;47258;59.424;13.482;2023-01-08T06:19:10;4.00;99.90
46217;DHT22;47258;59.424;13.482;2023-01-08T06:21:37;4.00;99.90
46217;DHT22;47258;59.424;13.482;2023-01-08T06:24:05;4.00;99.90
46217;DHT22;47258;59.424;13.482;2023-01-08T06:26:32;4.00;99.90
46217;DHT22;47258;59.424;13.482;2023-01-08T06:28:59;4.00;99.90
46217;DHT22;47258;59.424;13.482;2023-01-08T06:31:28;4.00;99.90
46217;DHT22;47258;59.424;13.482;2023-01-08T06:33:55;4.00;99.90
46217;DHT22;47258;59.424;13.482;2023-01-08T06:36:22;4.00;99.90
46217;DHT22;47258;59.424;13.482;2023-01-08T06:38:49;4.00;99.90
46217;DHT22;47258;59.424;13.482;2023-01-08T06:41:16;4.10;99.90
46217;DHT22;47258;59.424;13.482;2023-01-08T06:43:43;4.10;99.90
46217;DHT22;47258;59.424;13.482;2023-01-08T06:46:10;4.00;99.90
46217;DHT22;47258;59.424;13.482;2023-01-08T06:48:38;4.00;99.90
46217;DHT22;47258;59.424;13.482;2023-01-08T06:51:05;4.10;99.90
46217;DHT22;47258;59.424;13.482;2023-01-08T06:53:33;4.00;99.90
46217;DHT22;47258;59.424;13.482;2023-01-08T06:56:01;4.00;99.90
46217;DHT22;47258;59.424;13.482;2023-01-08T06:58:28;4.00;99.90
46217;DHT22;47258;59.424;13.482;2023-01-08T07:00:56;4.00;99.90
46217;DHT22;47258;59.424;13.482;2023-01-08T07:03:23;4.10;99.90
46217;DHT22;47258;59.424;13.482;2023-01-08T07:05:52;4.10;99.90
46217;DHT22;47258;59.424;13.482;2023-01-08T07:08:19;4.10;99.90
46217;DHT22;47258;59.424;13.482;2023-01-08T07:10:46;4.10;99.90
46217;DHT22;47258;59.424;13.482;2023-01-08T07:13:13;4.10;99.90
46217;DHT22;47258;59.424;13.482;2023-01-08T07:15:41;4.10;99.90
46217;DHT22;47258;59.424;13.482;2023-01-08T07:18:10;4.20;99.90
46217;DHT22;47258;59.424;13.482;2023-01-08T07:20:38;4.20;99.90
46217;DHT22;47258;59.424;13.482;2023-01-08T07:23:08;4.20;99.90
46217;DHT22;47258;59.424;13.482;2023-01-08T07:25:36;4.20;99.90
46217;DHT22;47258;59.424;13.482;2023-01-08T07:28:03;4.20;99.90
46217;DHT22;47258;59.424;13.482;2023-01-08T07:30:30;4.20;99.90
46217;DHT22;47258;59.424;13.482;2023-01-08T07:32:57;4.20;99.90
46217;DHT22;47258;59.424;13.482;2023-01-08T07:35:26;4.20;99.90
46217;DHT22;47258;59.424;13.482;2023-01-08T07:37:53;4.30;99.90
46217;DHT22;47258;59.424;13.482;2023-01-08T07:40:22;4.20;99.90
46217;DHT22;47258;59.424;13.482;2023-01-08T07:42:56;4.20;99.90
46217;DHT22;47258;59.424;13.482;2023-01-08T07:45:24;4.20;99.90
46217;DHT22;47258;59.424;13.482;2023-01-08T07:47:51;4.20;99.90
46217;DHT22;47258;59.424;13.482;2023-01-08T07:50:18;4.20;99.90
46217;DHT22;47258;59.424;13.482;2023-01-08T07:52:45;4.20;99.90
46217;DHT22;47258;59.424;13.482;2023-01-08T07:55:12;4.20;99.90
46217;DHT22;47258;59.424;13.482;2023-01-08T07:57:40;4.20;99.90
46217;DHT22;47258;59.424;13.482;2023-01-08T08:00:09;4.20;99.90
46217;DHT22;47258;59.424;13.482;2023-01-08T08:02:36;4.20;99.90
46217;DHT22;47258;59.424;13.482;2023-01-08T08:05:04;4.20;99.90
46217;DHT22;47258;59.424;13.482;2023-01-08T08:07:31;4.20;99.90
46217;DHT22;47258;59.424;13.482;2023-01-08T08:09:58;4.20;99.90
46217;DHT22;47258;59.424;13.482;2023-01-08T08:12:25;4.20;99.90
46217;DHT22;47258;59.424;13.482;2023-01-08T08:14:53;4.20;99.90
46217;DHT22;47258;59.424;13.482;2023-01-08T08:17:20;4.20;99.90
46217;DHT22;47258;59.424;13.482;2023-01-08T08:19:48;4.20;99.90
46217;DHT22;47258;59.424;13.482;2023-01-08T08:22:15;4.20;99.90
46217;DHT22;47258;59.424;13.482;2023-01-08T08:24:42;4.10;99.90
46217;DHT22;47258;59.424;13.482;2023-01-08T08:27:09;4.10;99.90
46217;DHT22;47258;59.424;13.482;2023-01-08T08:29:36;4.20;99.90
46217;DHT22;47258;59.424;13.482;2023-01-08T08:32:04;4.20;99.90
46217;DHT22;47258;59.424;13.482;2023-01-08T08:34:32;4.20;99.90
46217;DHT22;47258;59.424;13.482;2023-01-08T08:36:59;4.20;99.90
46217;DHT22;47258;59.424;13.482;2023-01-08T08:39:26;4.20;99.90
46217;DHT22;47258;59.424;13.482;2023-01-08T08:41:53;4.20;99.90
46217;DHT22;47258;59.424;13.482;2023-01-08T08:44:20;4.20;99.90
46217;DHT22;47258;59.424;13.482;2023-01-08T08:46:47;4.20;99.90
46217;DHT22;47258;59.424;13.482;2023-01-08T08:49:16;4.20;99.90
46217;DHT22;47258;59.424;13.482;2023-01-08T08:51:43;4.20;99.90
46217;DHT22;47258;59.424;13.482;2023-01-08T08:54:10;4.20;99.90
46217;DHT22;47258;59.424;13.482;2023-01-08T08:56:37;4.20;99.90
46217;DHT22;47258;59.424;13.482;2023-01-08T08:59:04;4.20;99.90
46217;DHT22;47258;59.424;13.482;2023-01-08T09:01:33;4.20;99.90
46217;DHT22;47258;59.424;13.482;2023-01-08T09:04:00;4.30;99.90
46217;DHT22;47258;59.424;13.482;2023-01-08T09:06:29;4.30;99.90
46217;DHT22;47258;59.424;13.482;2023-01-08T09:08:56;4.30;99.90
46217;DHT22;47258;59.424;13.482;2023-01-08T09:11:24;4.30;99.90
46217;DHT22;47258;59.424;13.482;2023-01-08T09:13:51;4.30;99.90
46217;DHT22;47258;59.424;13.482;2023-01-08T09:16:18;4.40;99.90
46217;DHT22;47258;59.424;13.482;2023-01-08T09:18:45;4.40;99.90
46217;DHT22;47258;59.424;13.482;2023-01-08T09:21:13;4.40;99.90
46217;DHT22;47258;59.424;13.482;2023-01-08T09:23:42;4.40;99.90
46217;DHT22;47258;59.424;13.482;2023-01-08T09:26:09;4.40;99.90
46217;DHT22;47258;59.424;13.482;2023-01-08T09:28:36;4.40;99.90
46217;DHT22;47258;59.424;13.482;2023-01-08T09:31:04;4.40;99.90
46217;DHT22;47258;59.424;13.482;2023-01-08T09:33:31;4.40;99.90
46217;DHT22;47258;59.424;13.482;2023-01-08T09:35:58;4.40;99.90
46217;DHT22;47258;59.424;13.482;2023-01-08T09:38:25;4.40;99.90
46217;DHT22;47258;59.424;13.482;2023-01-08T09:40:57;4.40;99.90
46217;DHT22;47258;59.424;13.482;2023-01-08T09:43:28;4.40;99.90
46217;DHT22;47258;59.424;13.482;2023-01-08T09:45:58;4.40;99.90
46217;DHT22;47258;59.424;13.482;2023-01-08T09:48:29;4.40;99.90
46217;DHT22;47258;59.424;13.482;2023-01-08T09:50:58;4.40;99.90
46217;DHT22;47258;59.424;13.482;2023-01-08T09:53:26;4.40;99.90
46217;DHT22;47258;59.424;13.482;2023-01-08T09:55:57;4.40;99.90
46217;DHT22;47258;59.424;13.482;2023-01-08T09:58:31;4.40;99.90
46217;DHT22;47258;59.424;13.482;2023-01-08T10:01:00;4.40;99.90
46217;DHT22;47258;59.424;13.482;2023-01-08T10:03:30;4.40;99.90
46217;DHT22;47258;59.424;13.482;2023-01-08T10:06:08;4.40;99.90
46217;DHT22;47258;59.424;13.482;2023-01-08T10:08:35;4.40;99.90
46217;DHT22;47258;59.424;13.482;2023-01-08T10:11:05;4.50;99.90
46217;DHT22;47258;59.424;13.482;2023-01-08T10:13:32;4.50;99.90
46217;DHT22;47258;59.424;13.482;2023-01-08T10:16:00;4.50;99.90
46217;DHT22;47258;59.424;13.482;2023-01-08T10:18:30;4.60;99.90
46217;DHT22;47258;59.424;13.482;2023-01-08T10:20:58;4.60;99.90
46217;DHT22;47258;59.424;13.482;2023-01-08T10:23:25;4.60;99.90
46217;DHT22;47258;59.424;13.482;2023-01-08T10:25:54;4.60;99.90
46217;DHT22;47258;59.424;13.482;2023-01-08T10:28:24;4.60;99.90
46217;DHT22;47258;59.424;13.482;2023-01-08T10:30:53;4.50;99.90
46217;DHT22;47258;59.424;13.482;2023-01-08T10:33:25;4.50;99.90
46217;DHT22;47258;59.424;13.482;2023-01-08T10:35:57;4.60;99.90
46217;DHT22;47258;59.424;13.482;2023-01-08T10:38:29;4.50;99.90
46217;DHT22;47258;59.424;13.482;2023-01-08T10:40:57;4.50;99.90
46217;DHT22;47258;59.424;13.482;2023-01-08T10:43:30;4.50;99.90
46217;DHT22;47258;59.424;13.482;2023-01-08T10:45:59;4.50;99.90
46217;DHT22;47258;59.424;13.482;2023-01-08T10:48:31;4.50;99.90
46217;DHT22;47258;59.424;13.482;2023-01-08T10:51:11;4.50;99.90
46217;DHT22;47258;59.424;13.482;2023-01-08T10:53:39;4.50;99.90
46217;DHT22;47258;59.424;13.482;2023-01-08T10:56:18;4.50;99.90
46217;DHT22;47258;59.424;13.482;2023-01-08T10:58:47;4.50;99.90
46217;DHT22;47258;59.424;13.482;2023-01-08T11:01:17;4.50;99.90
46217;DHT22;47258;59.424;13.482;2023-01-08T11:03:49;4.50;99.90
46217;DHT22;47258;59.424;13.482;2023-01-08T11:06:20;4.50;99.90
46217;DHT22;47258;59.424;13.482;2023-01-08T11:08:52;4.50;99.90
46217;DHT22;47258;59.424;13.482;2023-01-08T11:11:20;4.50;99.90
46217;DHT22;47258;59.424;13.482;2023-01-08T11:13:55;4.50;99.90
46217;DHT22;47258;59.424;13.482;2023-01-08T11:16:30;4.50;99.90
46217;DHT22;47258;59.424;13.482;2023-01-08T11:18:58;4.60;99.90
46217;DHT22;47258;59.424;13.482;2023-01-08T11:21:27;4.60;99.90
46217;DHT22;47258;59.424;13.482;2023-01-08T11:24:13;4.60;99.90
46217;DHT22;47258;59.424;13.482;2023-01-08T11:26:47;4.60;99.90
46217;DHT22;47258;59.424;13.482;2023-01-08T11:29:17;4.60;99.90
46217;DHT22;47258;59.424;13.482;2023-01-08T11:31:52;4.60;99.90
46217;DHT22;47258;59.424;13.482;2023-01-08T11:34:25;4.60;99.90
46217;DHT22;47258;59.424;13.482;2023-01-08T11:37:01;4.60;99.90
46217;DHT22;47258;59.424;13.482;2023-01-08T11:39:31;4.60;99.90
46217;DHT22;47258;59.424;13.482;2023-01-08T11:42:13;4.70;99.90
46217;DHT22;47258;59.424;13.482;2023-01-08T11:44:51;4.70;99.90
46217;DHT22;47258;59.424;13.482;2023-01-08T11:47:30;4.70;99.90
46217;DHT22;47258;59.424;13.482;2023-01-08T11:50:13;4.70;99.90
46217;DHT22;47258;59.424;13.482;2023-01-08T11:52:53;4.60;99.90
46217;DHT22;47258;59.424;13.482;2023-01-08T11:55:31;4.70;99.90
46217;DHT22;47258;59.424;13.482;2023-01-08T11:58:13;4.70;99.90
46217;DHT22;47258;59.424;13.482;2023-01-08T12:00:53;4.70;99.90
46217;DHT22;47258;59.424;13.482;2023-01-08T12:03:29;4.70;99.90
46217;DHT22;47258;59.424;13.482;2023-01-08T12:06:08;4.70;99.90
46217;DHT22;47258;59.424;13.482;2023-01-08T12:08:45;4.70;99.90
46217;DHT22;47258;59.424;13.482;2023-01-08T12:11:22;4.80;99.90
46217;DHT22;47258;59.424;13.482;2023-01-08T12:14:02;4.80;99.90
46217;DHT22;47258;59.424;13.482;2023-01-08T12:16:45;4.80;99.90
46217;DHT22;47258;59.424;13.482;2023-01-08T12:19:22;4.70;99.90
46217;DHT22;47258;59.424;13.482;2023-01-08T12:22:03;4.70;99.90
46217;DHT22;47258;59.424;13.482;2023-01-08T12:24:55;4.70;99.90
46217;DHT22;47258;59.424;13.482;2023-01-08T12:27:34;4.80;99.90
46217;DHT22;47258;59.424;13.482;2023-01-08T12:30:16;4.80;99.90
46217;DHT22;47258;59.424;13.482;2023-01-08T12:32:54;4.80;99.90
46217;DHT22;47258;59.424;13.482;2023-01-08T12:35:24;4.80;99.90
46217;DHT22;47258;59.424;13.482;2023-01-08T12:37:56;4.80;99.90
46217;DHT22;47258;59.424;13.482;2023-01-08T12:40:29;4.90;99.90
46217;DHT22;47258;59.424;13.482;2023-01-08T12:43:00;4.90;99.90
46217;DHT22;47258;59.424;13.482;2023-01-08T12:45:33;4.90;99.90
46217;DHT22;47258;59.424;13.482;2023-01-08T12:48:06;4.90;99.90
46217;DHT22;47258;59.424;13.482;2023-01-08T12:53:29;4.80;99.90
46217;DHT22;47258;59.424;13.482;2023-01-08T12:56:04;4.80;99.90
46217;DHT22;47258;59.424;13.482;2023-01-08T12:58:49;4.80;99.90
46217;DHT22;47258;59.424;13.482;2023-01-08T13:01:28;4.80;99.90
46217;DHT22;47258;59.424;13.482;2023-01-08T13:04:00;4.80;99.90
46217;DHT22;47258;59.424;13.482;2023-01-08T13:06:29;4.80;99.90
46217;DHT22;47258;59.424;13.482;2023-01-08T13:08:57;4.90;99.90
46217;DHT22;47258;59.424;13.482;2023-01-08T13:11:27;4.80;99.90
46217;DHT22;47258;59.424;13.482;2023-01-08T13:14:00;4.80;99.90
46217;DHT22;47258;59.424;13.482;2023-01-08T13:16:29;4.90;99.90
46217;DHT22;47258;59.424;13.482;2023-01-08T13:19:00;4.90;99.90
46217;DHT22;47258;59.424;13.482;2023-01-08T13:21:30;4.90;99.90
46217;DHT22;47258;59.424;13.482;2023-01-08T13:24:03;5.00;99.90
46217;DHT22;47258;59.424;13.482;2023-01-08T13:26:33;5.00;99.90
46217;DHT22;47258;59.424;13.482;2023-01-08T13:29:21;4.90;99.90
46217;DHT22;47258;59.424;13.482;2023-01-08T13:31:49;5.00;99.90
46217;DHT22;47258;59.424;13.482;2023-01-08T13:34:35;5.00;99.90
46217;DHT22;47258;59.424;13.482;2023-01-08T13:37:03;4.90;99.90
46217;DHT22;47258;59.424;13.482;2023-01-08T13:39:33;4.90;99.90
46217;DHT22;47258;59.424;13.482;2023-01-08T13:42:14;4.90;99.90
46217;DHT22;47258;59.424;13.482;2023-01-08T13:44:48;4.90;99.90
46217;DHT22;47258;59.424;13.482;2023-01-08T13:47:19;4.80;99.90
46217;DHT22;47258;59.424;13.482;2023-01-08T13:49:51;4.80;99.90
46217;DHT22;47258;59.424;13.482;2023-01-08T13:52:40;4.80;99.90
46217;DHT22;47258;59.424;13.482;2023-01-08T13:55:14;4.80;99.90
46217;DHT22;47258;59.424;13.482;2023-01-08T13:57:44;4.70;99.90
46217;DHT22;47258;59.424;13.482;2023-01-08T14:00:21;4.70;99.90
46217;DHT22;47258;59.424;13.482;2023-01-08T14:02:49;4.70;99.90
46217;DHT22;47258;59.424;13.482;2023-01-08T14:05:23;4.70;99.90
46217;DHT22;47258;59.424;13.482;2023-01-08T14:07:51;4.70;99.90
46217;DHT22;47258;59.424;13.482;2023-01-08T14:10:20;4.70;99.90
46217;DHT22;47258;59.424;13.482;2023-01-08T14:12:48;4.70;99.90
46217;DHT22;47258;59.424;13.482;2023-01-08T14:15:22;4.70;99.90
46217;DHT22;47258;59.424;13.482;2023-01-08T14:17:51;4.70;99.90
46217;DHT22;47258;59.424;13.482;2023-01-08T14:20:34;4.70;99.90
46217;DHT22;47258;59.424;13.482;2023-01-08T14:23:09;4.70;99.90
46217;DHT22;47258;59.424;13.482;2023-01-08T14:25:37;4.70;99.90
46217;DHT22;47258;59.424;13.482;2023-01-08T14:28:05;4.70;99.90
46217;DHT22;47258;59.424;13.482;2023-01-08T14:30:32;4.70;99.90
46217;DHT22;47258;59.424;13.482;2023-01-08T14:33:00;4.70;99.90
46217;DHT22;47258;59.424;13.482;2023-01-08T14:35:33;4.70;99.90
46217;DHT22;47258;59.424;13.482;2023-01-08T14:38:01;4.70;99.90
46217;DHT22;47258;59.424;13.482;2023-01-08T14:40:33;4.70;99.90
46217;DHT22;47258;59.424;13.482;2023-01-08T14:43:05;4.70;99.90
46217;DHT22;47258;59.424;13.482;2023-01-08T14:45:34;4.70;99.90
46217;DHT22;47258;59.424;13.482;2023-01-08T14:48:11;4.80;99.90
46217;DHT22;47258;59.424;13.482;2023-01-08T14:50:41;4.80;99.90
46217;DHT22;47258;59.424;13.482;2023-01-08T14:53:22;4.80;99.90
46217;DHT22;47258;59.424;13.482;2023-01-08T14:55:52;4.80;99.90
46217;DHT22;47258;59.424;13.482;2023-01-08T14:58:23;4.70;99.90
46217;DHT22;47258;59.424;13.482;2023-01-08T15:00:53;4.80;99.90
46217;DHT22;47258;59.424;13.482;2023-01-08T15:03:31;4.70;99.90
46217;DHT22;47258;59.424;13.482;2023-01-08T15:06:00;4.80;99.90
46217;DHT22;47258;59.424;13.482;2023-01-08T15:08:33;4.80;99.90
46217;DHT22;47258;59.424;13.482;2023-01-08T15:11:02;4.80;99.90
46217;DHT22;47258;59.424;13.482;2023-01-08T15:13:32;4.70;99.90
46217;DHT22;47258;59.424;13.482;2023-01-08T15:16:04;4.70;99.90
46217;DHT22;47258;59.424;13.482;2023-01-08T15:18:36;4.70;99.90
46217;DHT22;47258;59.424;13.482;2023-01-08T15:21:09;4.70;99.90
46217;DHT22;47258;59.424;13.482;2023-01-08T15:23:39;4.70;99.90
46217;DHT22;47258;59.424;13.482;2023-01-08T15:26:11;4.70;99.90
46217;DHT22;47258;59.424;13.482;2023-01-08T15:28:44;4.70;99.90
46217;DHT22;47258;59.424;13.482;2023-01-08T15:31:22;4.60;99.90
46217;DHT22;47258;59.424;13.482;2023-01-08T15:33:49;4.70;99.90
46217;DHT22;47258;59.424;13.482;2023-01-08T15:36:18;4.60;99.90
46217;DHT22;47258;59.424;13.482;2023-01-08T15:38:46;4.60;99.90
46217;DHT22;47258;59.424;13.482;2023-01-08T15:41:16;4.60;99.90
46217;DHT22;47258;59.424;13.482;2023-01-08T15:44:05;4.60;99.90
46217;DHT22;47258;59.424;13.482;2023-01-08T15:46:31;4.60;99.90
46217;DHT22;47258;59.424;13.482;2023-01-08T15:48:58;4.60;99.90
46217;DHT22;47258;59.424;13.482;2023-01-08T15:51:27;4.60;99.90